sensor_id;sensor_type;location;lat;lon;timestamp;temperature;humidity
32173;DHT22;18679;45.190;5.722;2023-05-07T00:02:43;23.10;39.10
32173;DHT22;18679;45.190;5.722;2023-05-07T00:05:59;23.10;39.20
32173;DHT22;18679;45.190;5.722;2023-05-07T00:09:09;23.10;39.30
32173;DHT22;18679;45.190;5.722;2023-05-07T00:12:23;23.00;39.20
32173;DHT22;18679;45.190;5.722;2023-05-07T00:15:30;23.00;39.20
32173;DHT22;18679;45.190;5.722;2023-05-07T00:18:39;23.00;39.20
32173;DHT22;18679;45.190;5.722;2023-05-07T00:21:57;23.00;39.30
32173;DHT22;18679;45.190;5.722;2023-05-07T00:25:03;22.90;39.30
32173;DHT22;18679;45.190;5.722;2023-05-07T00:28:09;22.90;39.30
32173;DHT22;18679;45.190;5.722;2023-05-07T00:31:26;22.80;39.30
32173;DHT22;18679;45.190;5.722;2023-05-07T00:34:32;22.70;39.40
32173;DHT22;18679;45.190;5.722;2023-05-07T00:37:35;22.70;39.40
32173;DHT22;18679;45.190;5.722;2023-05-07T00:40:48;22.70;39.50
32173;DHT22;18679;45.190;5.722;2023-05-07T00:44:02;22.70;39.60
32173;DHT22;18679;45.190;5.722;2023-05-07T00:47:11;22.60;39.60
32173;DHT22;18679;45.190;5.722;2023-05-07T00:50:23;22.60;39.70
32173;DHT22;18679;45.190;5.722;2023-05-07T00:53:29;22.50;39.80
32173;DHT22;18679;45.190;5.722;2023-05-07T00:56:35;22.40;39.90
32173;DHT22;18679;45.190;5.722;2023-05-07T00:59:42;22.40;40.00
32173;DHT22;18679;45.190;5.722;2023-05-07T01:02:53;22.30;40.10
32173;DHT22;18679;45.190;5.722;2023-05-07T01:06:04;22.30;40.20
32173;DHT22;18679;45.190;5.722;2023-05-07T01:09:13;22.30;40.40
32173;DHT22;18679;45.190;5.722;2023-05-07T01:12:26;22.20;40.40
32173;DHT22;18679;45.190;5.722;2023-05-07T01:15:32;22.20;40.50
32173;DHT22;18679;45.190;5.722;2023-05-07T01:18:40;22.20;40.60
32173;DHT22;18679;45.190;5.722;2023-05-07T01:21:48;22.20;40.60
32173;DHT22;18679;45.190;5.722;2023-05-07T01:25:06;22.20;40.80
32173;DHT22;18679;45.190;5.722;2023-05-07T01:28:20;22.20;41.00
32173;DHT22;18679;45.190;5.722;2023-05-07T01:31:29;22.10;41.10
32173;DHT22;18679;45.190;5.722;2023-05-07T01:34:39;22.10;41.20
32173;DHT22;18679;45.190;5.722;2023-05-07T01:37:48;22.10;41.30
32173;DHT22;18679;45.190;5.722;2023-05-07T01:41:04;22.00;41.30
32173;DHT22;18679;45.190;5.722;2023-05-07T01:44:10;22.00;41.40
32173;DHT22;18679;45.190;5.722;2023-05-07T01:47:23;22.00;41.60
32173;DHT22;18679;45.190;5.722;2023-05-07T01:50:34;21.90;41.70
32173;DHT22;18679;45.190;5.722;2023-05-07T01:53:41;21.90;41.70
32173;DHT22;18679;45.190;5.722;2023-05-07T01:56:48;21.90;41.70
32173;DHT22;18679;45.190;5.722;2023-05-07T02:00:01;21.90;41.70
32173;DHT22;18679;45.190;5.722;2023-05-07T02:03:20;21.90;41.70
32173;DHT22;18679;45.190;5.722;2023-05-07T02:06:39;21.90;41.70
32173;DHT22;18679;45.190;5.722;2023-05-07T02:09:47;21.90;41.70
32173;DHT22;18679;45.190;5.722;2023-05-07T02:12:55;21.90;41.70
32173;DHT22;18679;45.190;5.722;2023-05-07T02:16:10;21.90;41.70
32173;DHT22;18679;45.190;5.722;2023-05-07T02:19:23;21.90;41.80
32173;DHT22;18679;45.190;5.722;2023-05-07T02:22:30;21.80;41.80
32173;DHT22;18679;45.190;5.722;2023-05-07T02:25:40;21.80;41.90
32173;DHT22;18679;45.190;5.722;2023-05-07T02:28:47;21.70;42.10
32173;DHT22;18679;45.190;5.722;2023-05-07T02:31:59;21.70;42.40
32173;DHT22;18679;45.190;5.722;2023-05-07T02:35:12;21.60;42.90
32173;DHT22;18679;45.190;5.722;2023-05-07T02:38:27;21.60;43.10
32173;DHT22;18679;45.190;5.722;2023-05-07T02:41:31;21.50;43.30
32173;DHT22;18679;45.190;5.722;2023-05-07T02:44:39;21.50;43.50
32173;DHT22;18679;45.190;5.722;2023-05-07T02:47:48;21.50;43.50
32173;DHT22;18679;45.190;5.722;2023-05-07T02:51:08;21.50;43.50
32173;DHT22;18679;45.190;5.722;2023-05-07T02:54:18;21.50;43.60
32173;DHT22;18679;45.190;5.722;2023-05-07T02:57:25;21.40;43.50
32173;DHT22;18679;45.190;5.722;2023-05-07T03:00:31;21.40;43.60
32173;DHT22;18679;45.190;5.722;2023-05-07T03:03:49;21.40;43.60
32173;DHT22;18679;45.190;5.722;2023-05-07T03:07:03;21.40;43.60
32173;DHT22;18679;45.190;5.722;2023-05-07T03:10:16;21.30;43.70
32173;DHT22;18679;45.190;5.722;2023-05-07T03:13:24;21.30;43.90
32173;DHT22;18679;45.190;5.722;2023-05-07T03:16:30;21.30;44.10
32173;DHT22;18679;45.190;5.722;2023-05-07T03:19:38;21.20;44.30
32173;DHT22;18679;45.190;5.722;2023-05-07T03:22:47;21.10;44.40
32173;DHT22;18679;45.190;5.722;2023-05-07T03:25:57;21.10;44.50
32173;DHT22;18679;45.190;5.722;2023-05-07T03:29:10;21.10;44.60
32173;DHT22;18679;45.190;5.722;2023-05-07T03:32:19;21.00;44.80
32173;DHT22;18679;45.190;5.722;2023-05-07T03:35:27;21.00;45.10
32173;DHT22;18679;45.190;5.722;2023-05-07T03:38:31;21.00;45.20
32173;DHT22;18679;45.190;5.722;2023-05-07T03:41:39;21.00;45.20
32173;DHT22;18679;45.190;5.722;2023-05-07T03:44:47;21.00;45.30
32173;DHT22;18679;45.190;5.722;2023-05-07T03:47:57;21.00;45.50
32173;DHT22;18679;45.190;5.722;2023-05-07T03:51:09;21.00;45.60
32173;DHT22;18679;45.190;5.722;2023-05-07T03:54:17;21.10;45.90
32173;DHT22;18679;45.190;5.722;2023-05-07T03:57:24;21.00;46.00
32173;DHT22;18679;45.190;5.722;2023-05-07T04:00:32;21.00;46.10
32173;DHT22;18679;45.190;5.722;2023-05-07T04:03:53;21.00;46.30
32173;DHT22;18679;45.190;5.722;2023-05-07T04:07:05;21.00;46.50
32173;DHT22;18679;45.190;5.722;2023-05-07T04:10:23;21.00;46.50
32173;DHT22;18679;45.190;5.722;2023-05-07T04:13:35;21.00;46.30
32173;DHT22;18679;45.190;5.722;2023-05-07T04:16:49;21.00;46.20
32173;DHT22;18679;45.190;5.722;2023-05-07T04:19:56;21.00;46.10
32173;DHT22;18679;45.190;5.722;2023-05-07T04:23:06;21.10;46.20
32173;DHT22;18679;45.190;5.722;2023-05-07T04:26:16;21.00;46.30
32173;DHT22;18679;45.190;5.722;2023-05-07T04:29:29;21.00;46.50
32173;DHT22;18679;45.190;5.722;2023-05-07T04:32:34;21.00;46.60
32173;DHT22;18679;45.190;5.722;2023-05-07T04:35:41;21.00;46.80
32173;DHT22;18679;45.190;5.722;2023-05-07T04:38:53;21.00;47.00
32173;DHT22;18679;45.190;5.722;2023-05-07T04:41:58;20.90;47.00
32173;DHT22;18679;45.190;5.722;2023-05-07T04:45:10;20.90;47.20
32173;DHT22;18679;45.190;5.722;2023-05-07T04:48:23;20.90;47.30
32173;DHT22;18679;45.190;5.722;2023-05-07T04:51:29;20.80;47.40
32173;DHT22;18679;45.190;5.722;2023-05-07T04:54:37;20.80;47.60
32173;DHT22;18679;45.190;5.722;2023-05-07T04:57:48;20.80;48.00
32173;DHT22;18679;45.190;5.722;2023-05-07T05:00:57;20.80;48.20
32173;DHT22;18679;45.190;5.722;2023-05-07T05:04:07;20.80;48.50
32173;DHT22;18679;45.190;5.722;2023-05-07T05:07:15;20.80;48.70
32173;DHT22;18679;45.190;5.722;2023-05-07T05:10:24;20.80;48.70
32173;DHT22;18679;45.190;5.722;2023-05-07T05:13:30;20.80;48.70
32173;DHT22;18679;45.190;5.722;2023-05-07T05:16:52;20.90;48.90
32173;DHT22;18679;45.190;5.722;2023-05-07T05:20:02;20.80;49.00
32173;DHT22;18679;45.190;5.722;2023-05-07T05:23:13;20.80;49.10
32173;DHT22;18679;45.190;5.722;2023-05-07T05:26:24;20.80;49.10
32173;DHT22;18679;45.190;5.722;2023-05-07T05:29:32;20.70;49.30
32173;DHT22;18679;45.190;5.722;2023-05-07T05:32:38;20.60;49.40
32173;DHT22;18679;45.190;5.722;2023-05-07T05:35:49;20.60;49.60
32173;DHT22;18679;45.190;5.722;2023-05-07T05:39:04;20.50;49.80
32173;DHT22;18679;45.190;5.722;2023-05-07T05:42:13;20.50;50.00
32173;DHT22;18679;45.190;5.722;2023-05-07T05:45:29;20.40;50.30
32173;DHT22;18679;45.190;5.722;2023-05-07T05:48:35;20.40;50.50
32173;DHT22;18679;45.190;5.722;2023-05-07T05:51:48;20.30;50.60
32173;DHT22;18679;45.190;5.722;2023-05-07T05:54:59;20.30;50.80
32173;DHT22;18679;45.190;5.722;2023-05-07T05:58:06;20.20;50.90
32173;DHT22;18679;45.190;5.722;2023-05-07T06:01:19;20.20;51.00
32173;DHT22;18679;45.190;5.722;2023-05-07T06:04:30;20.20;51.10
32173;DHT22;18679;45.190;5.722;2023-05-07T06:07:36;20.20;51.10
32173;DHT22;18679;45.190;5.722;2023-05-07T06:10:44;20.20;51.20
32173;DHT22;18679;45.190;5.722;2023-05-07T06:13:59;20.10;51.20
32173;DHT22;18679;45.190;5.722;2023-05-07T06:17:09;20.20;51.30
32173;DHT22;18679;45.190;5.722;2023-05-07T06:20:23;20.20;51.20
32173;DHT22;18679;45.190;5.722;2023-05-07T06:23:31;20.20;51.00
32173;DHT22;18679;45.190;5.722;2023-05-07T06:26:38;20.30;50.80
32173;DHT22;18679;45.190;5.722;2023-05-07T06:29:42;20.40;50.60
32173;DHT22;18679;45.190;5.722;2023-05-07T06:32:51;20.50;50.30
32173;DHT22;18679;45.190;5.722;2023-05-07T06:36:03;20.60;49.80
32173;DHT22;18679;45.190;5.722;2023-05-07T06:39:13;20.80;49.60
32173;DHT22;18679;45.190;5.722;2023-05-07T06:42:23;20.90;49.20
32173;DHT22;18679;45.190;5.722;2023-05-07T06:45:34;21.10;48.80
32173;DHT22;18679;45.190;5.722;2023-05-07T06:48:41;21.30;49.00
32173;DHT22;18679;45.190;5.722;2023-05-07T06:51:59;21.40;48.20
32173;DHT22;18679;45.190;5.722;2023-05-07T06:55:09;21.60;47.90
32173;DHT22;18679;45.190;5.722;2023-05-07T06:58:16;21.70;47.50
32173;DHT22;18679;45.190;5.722;2023-05-07T07:01:32;22.00;46.90
32173;DHT22;18679;45.190;5.722;2023-05-07T07:04:40;22.20;46.40
32173;DHT22;18679;45.190;5.722;2023-05-07T07:07:47;22.40;46.00
32173;DHT22;18679;45.190;5.722;2023-05-07T07:11:02;22.50;45.60
32173;DHT22;18679;45.190;5.722;2023-05-07T07:14:11;22.70;45.40
32173;DHT22;18679;45.190;5.722;2023-05-07T07:17:25;22.70;45.20
32173;DHT22;18679;45.190;5.722;2023-05-07T07:20:35;22.70;45.10
32173;DHT22;18679;45.190;5.722;2023-05-07T07:23:44;22.70;45.50
32173;DHT22;18679;45.190;5.722;2023-05-07T07:26:57;22.80;44.80
32173;DHT22;18679;45.190;5.722;2023-05-07T07:30:13;22.80;44.60
32173;DHT22;18679;45.190;5.722;2023-05-07T07:33:26;22.90;44.30
32173;DHT22;18679;45.190;5.722;2023-05-07T07:36:34;23.00;44.20
32173;DHT22;18679;45.190;5.722;2023-05-07T07:39:42;23.10;44.10
32173;DHT22;18679;45.190;5.722;2023-05-07T07:42:48;23.10;44.10
32173;DHT22;18679;45.190;5.722;2023-05-07T07:46:04;23.10;43.90
32173;DHT22;18679;45.190;5.722;2023-05-07T07:49:15;23.20;43.80
32173;DHT22;18679;45.190;5.722;2023-05-07T07:52:22;23.40;43.60
32173;DHT22;18679;45.190;5.722;2023-05-07T07:55:40;23.60;43.30
32173;DHT22;18679;45.190;5.722;2023-05-07T07:58:50;23.90;43.00
32173;DHT22;18679;45.190;5.722;2023-05-07T08:01:59;24.10;42.60
32173;DHT22;18679;45.190;5.722;2023-05-07T08:05:10;24.20;42.30
32173;DHT22;18679;45.190;5.722;2023-05-07T08:08:21;24.30;42.00
32173;DHT22;18679;45.190;5.722;2023-05-07T08:11:26;24.10;41.80
32173;DHT22;18679;45.190;5.722;2023-05-07T08:14:31;24.10;42.00
32173;DHT22;18679;45.190;5.722;2023-05-07T08:17:39;24.00;42.00
32173;DHT22;18679;45.190;5.722;2023-05-07T08:20:49;24.00;42.10
32173;DHT22;18679;45.190;5.722;2023-05-07T08:24:23;24.10;41.90
32173;DHT22;18679;45.190;5.722;2023-05-07T08:27:33;24.00;41.90
32173;DHT22;18679;45.190;5.722;2023-05-07T08:30:42;23.90;42.00
32173;DHT22;18679;45.190;5.722;2023-05-07T08:33:52;23.90;42.10
32173;DHT22;18679;45.190;5.722;2023-05-07T08:37:11;23.90;42.10
32173;DHT22;18679;45.190;5.722;2023-05-07T08:40:22;23.90;42.00
32173;DHT22;18679;45.190;5.722;2023-05-07T08:43:38;23.90;42.00
32173;DHT22;18679;45.190;5.722;2023-05-07T08:46:49;23.80;42.10
32173;DHT22;18679;45.190;5.722;2023-05-07T08:50:08;23.80;42.10
32173;DHT22;18679;45.190;5.722;2023-05-07T08:53:16;23.80;42.20
32173;DHT22;18679;45.190;5.722;2023-05-07T08:56:25;23.80;42.20
32173;DHT22;18679;45.190;5.722;2023-05-07T08:59:31;23.80;42.40
32173;DHT22;18679;45.190;5.722;2023-05-07T09:02:40;23.70;42.60
32173;DHT22;18679;45.190;5.722;2023-05-07T09:05:47;23.60;43.00
32173;DHT22;18679;45.190;5.722;2023-05-07T09:09:04;23.60;43.30
32173;DHT22;18679;45.190;5.722;2023-05-07T09:12:15;23.50;43.60
32173;DHT22;18679;45.190;5.722;2023-05-07T09:15:27;23.50;43.70
32173;DHT22;18679;45.190;5.722;2023-05-07T09:18:33;23.40;43.90
32173;DHT22;18679;45.190;5.722;2023-05-07T09:21:41;23.40;44.20
32173;DHT22;18679;45.190;5.722;2023-05-07T09:24:50;23.40;44.50
32173;DHT22;18679;45.190;5.722;2023-05-07T09:28:05;23.40;44.50
32173;DHT22;18679;45.190;5.722;2023-05-07T09:31:17;23.50;44.70
32173;DHT22;18679;45.190;5.722;2023-05-07T09:34:25;23.40;45.00
32173;DHT22;18679;45.190;5.722;2023-05-07T09:37:34;23.40;45.50
32173;DHT22;18679;45.190;5.722;2023-05-07T09:40:44;23.30;45.80
32173;DHT22;18679;45.190;5.722;2023-05-07T09:43:56;23.30;46.50
32173;DHT22;18679;45.190;5.722;2023-05-07T09:47:18;23.20;46.90
32173;DHT22;18679;45.190;5.722;2023-05-07T09:50:36;23.10;47.00
32173;DHT22;18679;45.190;5.722;2023-05-07T09:53:50;23.00;47.20
32173;DHT22;18679;45.190;5.722;2023-05-07T09:57:05;22.90;47.50
32173;DHT22;18679;45.190;5.722;2023-05-07T10:00:17;22.80;47.80
32173;DHT22;18679;45.190;5.722;2023-05-07T10:03:25;22.80;48.20
32173;DHT22;18679;45.190;5.722;2023-05-07T10:06:40;22.70;47.90
32173;DHT22;18679;45.190;5.722;2023-05-07T10:09:56;22.70;47.70
32173;DHT22;18679;45.190;5.722;2023-05-07T10:13:11;22.70;47.40
32173;DHT22;18679;45.190;5.722;2023-05-07T10:16:32;22.70;47.20
32173;DHT22;18679;45.190;5.722;2023-05-07T10:19:54;22.70;47.00
32173;DHT22;18679;45.190;5.722;2023-05-07T10:23:10;22.60;46.20
32173;DHT22;18679;45.190;5.722;2023-05-07T10:26:25;22.60;46.00
32173;DHT22;18679;45.190;5.722;2023-05-07T10:29:45;22.70;46.20
32173;DHT22;18679;45.190;5.722;2023-05-07T10:33:01;22.60;46.30
32173;DHT22;18679;45.190;5.722;2023-05-07T10:36:25;22.60;46.60
32173;DHT22;18679;45.190;5.722;2023-05-07T10:39:32;22.50;46.90
32173;DHT22;18679;45.190;5.722;2023-05-07T10:42:53;22.50;47.00
32173;DHT22;18679;45.190;5.722;2023-05-07T10:46:18;22.40;46.90
32173;DHT22;18679;45.190;5.722;2023-05-07T10:49:33;22.40;47.10
32173;DHT22;18679;45.190;5.722;2023-05-07T10:52:43;22.60;47.10
32173;DHT22;18679;45.190;5.722;2023-05-07T10:56:26;22.50;47.00
32173;DHT22;18679;45.190;5.722;2023-05-07T10:59:41;22.50;47.10
32173;DHT22;18679;45.190;5.722;2023-05-07T11:06:28;22.70;46.70
32173;DHT22;18679;45.190;5.722;2023-05-07T11:09:55;22.70;46.60
32173;DHT22;18679;45.190;5.722;2023-05-07T11:13:43;22.90;46.50
32173;DHT22;18679;45.190;5.722;2023-05-07T11:17:13;23.00;46.50
32173;DHT22;18679;45.190;5.722;2023-05-07T11:20:47;23.20;46.20
32173;DHT22;18679;45.190;5.722;2023-05-07T11:24:13;23.40;45.90
32173;DHT22;18679;45.190;5.722;2023-05-07T11:27:33;23.60;45.50
32173;DHT22;18679;45.190;5.722;2023-05-07T11:30:43;23.60;45.90
32173;DHT22;18679;45.190;5.722;2023-05-07T11:34:02;23.50;45.30
32173;DHT22;18679;45.190;5.722;2023-05-07T11:37:09;23.50;45.30
32173;DHT22;18679;45.190;5.722;2023-05-07T11:40:34;23.40;45.40
32173;DHT22;18679;45.190;5.722;2023-05-07T11:44:01;23.30;45.60
32173;DHT22;18679;45.190;5.722;2023-05-07T11:47:11;23.20;45.70
32173;DHT22;18679;45.190;5.722;2023-05-07T11:50:19;23.20;45.50
32173;DHT22;18679;45.190;5.722;2023-05-07T11:53:38;23.00;45.50
32173;DHT22;18679;45.190;5.722;2023-05-07T11:56:43;22.90;45.70
32173;DHT22;18679;45.190;5.722;2023-05-07T11:59:55;22.70;45.60
32173;DHT22;18679;45.190;5.722;2023-05-07T12:03:08;22.80;45.80
32173;DHT22;18679;45.190;5.722;2023-05-07T12:06:15;22.80;45.80
32173;DHT22;18679;45.190;5.722;2023-05-07T12:09:32;22.80;45.80
32173;DHT22;18679;45.190;5.722;2023-05-07T12:12:50;22.80;45.70
32173;DHT22;18679;45.190;5.722;2023-05-07T12:16:05;22.90;45.80
32173;DHT22;18679;45.190;5.722;2023-05-07T12:19:14;23.00;45.80
32173;DHT22;18679;45.190;5.722;2023-05-07T12:22:21;23.10;45.70
32173;DHT22;18679;45.190;5.722;2023-05-07T12:25:39;23.20;45.70
32173;DHT22;18679;45.190;5.722;2023-05-07T12:28:52;23.10;45.70
32173;DHT22;18679;45.190;5.722;2023-05-07T12:32:03;23.20;45.80
32173;DHT22;18679;45.190;5.722;2023-05-07T12:35:12;23.20;45.80
32173;DHT22;18679;45.190;5.722;2023-05-07T12:38:19;23.10;45.90
32173;DHT22;18679;45.190;5.722;2023-05-07T12:41:26;23.10;45.90
32173;DHT22;18679;45.190;5.722;2023-05-07T12:44:35;23.10;46.00
32173;DHT22;18679;45.190;5.722;2023-05-07T12:47:52;23.20;46.00
32173;DHT22;18679;45.190;5.722;2023-05-07T12:51:02;23.20;46.10
32173;DHT22;18679;45.190;5.722;2023-05-07T12:54:11;23.10;46.10
32173;DHT22;18679;45.190;5.722;2023-05-07T12:57:20;23.10;46.20
32173;DHT22;18679;45.190;5.722;2023-05-07T13:00:39;23.10;46.40
32173;DHT22;18679;45.190;5.722;2023-05-07T13:03:50;23.00;46.70
32173;DHT22;18679;45.190;5.722;2023-05-07T13:07:03;22.90;46.90
32173;DHT22;18679;45.190;5.722;2023-05-07T13:10:11;22.80;47.00
32173;DHT22;18679;45.190;5.722;2023-05-07T13:13:20;22.80;47.10
32173;DHT22;18679;45.190;5.722;2023-05-07T13:16:27;22.90;47.40
32173;DHT22;18679;45.190;5.722;2023-05-07T13:19:34;22.80;47.50
32173;DHT22;18679;45.190;5.722;2023-05-07T13:22:43;22.80;47.80
32173;DHT22;18679;45.190;5.722;2023-05-07T13:25:53;22.80;48.00
32173;DHT22;18679;45.190;5.722;2023-05-07T13:29:03;22.70;48.00
32173;DHT22;18679;45.190;5.722;2023-05-07T13:32:11;22.70;48.10
32173;DHT22;18679;45.190;5.722;2023-05-07T13:35:24;22.70;48.20
32173;DHT22;18679;45.190;5.722;2023-05-07T13:38:29;22.70;48.30
32173;DHT22;18679;45.190;5.722;2023-05-07T13:41:39;22.70;48.30
32173;DHT22;18679;45.190;5.722;2023-05-07T13:44:48;22.80;48.30
32173;DHT22;18679;45.190;5.722;2023-05-07T13:48:00;22.90;48.20
32173;DHT22;18679;45.190;5.722;2023-05-07T13:51:13;23.00;48.10
32173;DHT22;18679;45.190;5.722;2023-05-07T13:54:23;23.10;48.00
32173;DHT22;18679;45.190;5.722;2023-05-07T13:57:29;23.10;47.90
32173;DHT22;18679;45.190;5.722;2023-05-07T14:00:41;23.00;48.00
32173;DHT22;18679;45.190;5.722;2023-05-07T14:03:55;22.90;48.10
32173;DHT22;18679;45.190;5.722;2023-05-07T14:07:04;22.80;48.30
32173;DHT22;18679;45.190;5.722;2023-05-07T14:10:15;22.70;48.50
32173;DHT22;18679;45.190;5.722;2023-05-07T14:13:22;22.60;48.80
32173;DHT22;18679;45.190;5.722;2023-05-07T14:16:32;22.50;48.90
32173;DHT22;18679;45.190;5.722;2023-05-07T14:19:43;22.40;49.10
32173;DHT22;18679;45.190;5.722;2023-05-07T14:22:53;22.30;49.30
32173;DHT22;18679;45.190;5.722;2023-05-07T14:26:03;22.20;49.50
32173;DHT22;18679;45.190;5.722;2023-05-07T14:29:11;22.20;49.80
32173;DHT22;18679;45.190;5.722;2023-05-07T14:32:22;22.10;50.00
32173;DHT22;18679;45.190;5.722;2023-05-07T14:35:33;22.10;50.20
32173;DHT22;18679;45.190;5.722;2023-05-07T14:38:42;22.00;50.20
32173;DHT22;18679;45.190;5.722;2023-05-07T14:41:54;22.00;50.30
32173;DHT22;18679;45.190;5.722;2023-05-07T14:45:04;22.00;50.40
32173;DHT22;18679;45.190;5.722;2023-05-07T14:48:10;22.10;50.40
32173;DHT22;18679;45.190;5.722;2023-05-07T14:51:23;22.10;50.40
32173;DHT22;18679;45.190;5.722;2023-05-07T14:54:40;22.10;50.40
32173;DHT22;18679;45.190;5.722;2023-05-07T14:57:52;22.20;50.60
32173;DHT22;18679;45.190;5.722;2023-05-07T15:01:04;22.20;50.70
32173;DHT22;18679;45.190;5.722;2023-05-07T15:04:13;22.20;50.80
32173;DHT22;18679;45.190;5.722;2023-05-07T15:07:21;22.20;50.80
32173;DHT22;18679;45.190;5.722;2023-05-07T15:10:25;22.20;50.90
32173;DHT22;18679;45.190;5.722;2023-05-07T15:13:38;22.20;50.90
32173;DHT22;18679;45.190;5.722;2023-05-07T15:16:51;22.20;50.80
32173;DHT22;18679;45.190;5.722;2023-05-07T15:19:56;22.20;50.90
32173;DHT22;18679;45.190;5.722;2023-05-07T15:23:01;22.30;50.90
32173;DHT22;18679;45.190;5.722;2023-05-07T15:26:14;22.20;50.90
32173;DHT22;18679;45.190;5.722;2023-05-07T15:29:27;22.20;50.90
32173;DHT22;18679;45.190;5.722;2023-05-07T15:32:36;22.20;51.00
32173;DHT22;18679;45.190;5.722;2023-05-07T15:35:56;22.10;51.30
32173;DHT22;18679;45.190;5.722;2023-05-07T15:39:08;22.10;51.60
32173;DHT22;18679;45.190;5.722;2023-05-07T15:42:17;22.00;51.90
32173;DHT22;18679;45.190;5.722;2023-05-07T15:45:27;21.90;52.20
32173;DHT22;18679;45.190;5.722;2023-05-07T15:48:34;21.80;52.40
32173;DHT22;18679;45.190;5.722;2023-05-07T15:51:51;21.80;52.50
32173;DHT22;18679;45.190;5.722;2023-05-07T15:54:59;21.80;52.40
32173;DHT22;18679;45.190;5.722;2023-05-07T15:58:13;21.80;52.30
32173;DHT22;18679;45.190;5.722;2023-05-07T16:01:23;21.80;52.10
32173;DHT22;18679;45.190;5.722;2023-05-07T16:04:33;21.90;51.90
32173;DHT22;18679;45.190;5.722;2023-05-07T16:07:45;21.90;51.70
32173;DHT22;18679;45.190;5.722;2023-05-07T16:10:55;22.00;51.60
32173;DHT22;18679;45.190;5.722;2023-05-07T16:14:05;22.00;51.60
32173;DHT22;18679;45.190;5.722;2023-05-07T16:17:16;22.00;51.50
32173;DHT22;18679;45.190;5.722;2023-05-07T16:20:29;22.00;51.30
32173;DHT22;18679;45.190;5.722;2023-05-07T16:23:34;22.00;51.20
32173;DHT22;18679;45.190;5.722;2023-05-07T16:26:44;22.00;51.10
32173;DHT22;18679;45.190;5.722;2023-05-07T16:30:04;22.10;50.90
32173;DHT22;18679;45.190;5.722;2023-05-07T16:33:13;22.20;50.70
32173;DHT22;18679;45.190;5.722;2023-05-07T16:36:28;22.40;50.50
32173;DHT22;18679;45.190;5.722;2023-05-07T16:39:33;22.60;50.40
32173;DHT22;18679;45.190;5.722;2023-05-07T16:42:39;22.60;50.20
32173;DHT22;18679;45.190;5.722;2023-05-07T16:45:46;22.60;50.20
32173;DHT22;18679;45.190;5.722;2023-05-07T16:48:58;22.60;50.20
32173;DHT22;18679;45.190;5.722;2023-05-07T16:52:03;22.70;50.00
32173;DHT22;18679;45.190;5.722;2023-05-07T16:55:12;22.50;50.10
32173;DHT22;18679;45.190;5.722;2023-05-07T16:58:17;22.40;50.30
32173;DHT22;18679;45.190;5.722;2023-05-07T17:01:24;22.40;50.30
32173;DHT22;18679;45.190;5.722;2023-05-07T17:04:38;22.30;50.50
32173;DHT22;18679;45.190;5.722;2023-05-07T17:07:45;22.30;50.60
32173;DHT22;18679;45.190;5.722;2023-05-07T17:10:54;22.20;50.90
32173;DHT22;18679;45.190;5.722;2023-05-07T17:14:05;22.10;50.90
32173;DHT22;18679;45.190;5.722;2023-05-07T17:17:12;22.10;50.90
32173;DHT22;18679;45.190;5.722;2023-05-07T17:20:18;22.00;50.90
32173;DHT22;18679;45.190;5.722;2023-05-07T17:23:27;22.00;50.90
32173;DHT22;18679;45.190;5.722;2023-05-07T17:26:35;22.00;50.70
32173;DHT22;18679;45.190;5.722;2023-05-07T17:29:50;21.90;50.60
32173;DHT22;18679;45.190;5.722;2023-05-07T17:33:04;21.90;50.50
32173;DHT22;18679;45.190;5.722;2023-05-07T17:36:11;21.90;51.10
32173;DHT22;18679;45.190;5.722;2023-05-07T17:39:16;21.90;51.50
32173;DHT22;18679;45.190;5.722;2023-05-07T17:42:24;21.90;51.70
32173;DHT22;18679;45.190;5.722;2023-05-07T17:45:34;22.00;51.70
32173;DHT22;18679;45.190;5.722;2023-05-07T17:48:39;21.90;51.90
32173;DHT22;18679;45.190;5.722;2023-05-07T17:51:45;22.10;51.80
32173;DHT22;18679;45.190;5.722;2023-05-07T17:54:56;21.90;52.20
32173;DHT22;18679;45.190;5.722;2023-05-07T17:58:08;22.00;52.70
32173;DHT22;18679;45.190;5.722;2023-05-07T18:01:16;22.00;53.10
32173;DHT22;18679;45.190;5.722;2023-05-07T18:04:29;22.00;53.20
32173;DHT22;18679;45.190;5.722;2023-05-07T18:07:38;22.00;53.20
32173;DHT22;18679;45.190;5.722;2023-05-07T18:10:47;22.00;53.30
32173;DHT22;18679;45.190;5.722;2023-05-07T18:13:59;22.00;53.30
32173;DHT22;18679;45.190;5.722;2023-05-07T18:17:11;21.90;52.90
32173;DHT22;18679;45.190;5.722;2023-05-07T18:20:19;21.90;52.70
32173;DHT22;18679;45.190;5.722;2023-05-07T18:23:29;21.90;52.50
32173;DHT22;18679;45.190;5.722;2023-05-07T18:26:34;21.90;52.30
32173;DHT22;18679;45.190;5.722;2023-05-07T18:29:43;21.90;52.80
32173;DHT22;18679;45.190;5.722;2023-05-07T18:32:49;21.80;52.10
32173;DHT22;18679;45.190;5.722;2023-05-07T18:36:04;21.80;52.00
32173;DHT22;18679;45.190;5.722;2023-05-07T18:39:12;21.80;51.90
32173;DHT22;18679;45.190;5.722;2023-05-07T18:42:22;21.80;51.80
32173;DHT22;18679;45.190;5.722;2023-05-07T18:45:28;21.70;51.70
32173;DHT22;18679;45.190;5.722;2023-05-07T18:48:33;21.80;51.60
32173;DHT22;18679;45.190;5.722;2023-05-07T18:51:42;21.80;51.30
32173;DHT22;18679;45.190;5.722;2023-05-07T18:54:56;21.70;51.40
32173;DHT22;18679;45.190;5.722;2023-05-07T18:58:09;21.60;51.40
32173;DHT22;18679;45.190;5.722;2023-05-07T19:01:20;21.60;51.30
32173;DHT22;18679;45.190;5.722;2023-05-07T19:04:30;21.50;51.10
32173;DHT22;18679;45.190;5.722;2023-05-07T19:07:40;21.50;51.10
32173;DHT22;18679;45.190;5.722;2023-05-07T19:10:49;21.50;51.10
32173;DHT22;18679;45.190;5.722;2023-05-07T19:14:00;21.50;51.20
32173;DHT22;18679;45.190;5.722;2023-05-07T19:17:14;21.50;51.00
32173;DHT22;18679;45.190;5.722;2023-05-07T19:20:22;21.40;50.90
32173;DHT22;18679;45.190;5.722;2023-05-07T19:23:29;21.40;51.00
32173;DHT22;18679;45.190;5.722;2023-05-07T19:26:34;21.40;51.00
32173;DHT22;18679;45.190;5.722;2023-05-07T19:29:42;21.30;51.10
32173;DHT22;18679;45.190;5.722;2023-05-07T19:32:52;21.30;51.20
32173;DHT22;18679;45.190;5.722;2023-05-07T19:36:05;21.30;51.30
32173;DHT22;18679;45.190;5.722;2023-05-07T19:39:16;21.20;51.50
32173;DHT22;18679;45.190;5.722;2023-05-07T19:42:25;21.20;51.80
32173;DHT22;18679;45.190;5.722;2023-05-07T19:45:34;21.10;51.90
32173;DHT22;18679;45.190;5.722;2023-05-07T19:48:52;21.10;52.10
32173;DHT22;18679;45.190;5.722;2023-05-07T19:52:08;21.10;52.80
32173;DHT22;18679;45.190;5.722;2023-05-07T19:55:15;21.10;52.30
32173;DHT22;18679;45.190;5.722;2023-05-07T19:58:23;21.00;52.30
32173;DHT22;18679;45.190;5.722;2023-05-07T20:01:32;21.00;52.50
32173;DHT22;18679;45.190;5.722;2023-05-07T20:04:41;20.90;53.00
32173;DHT22;18679;45.190;5.722;2023-05-07T20:07:53;20.70;53.40
32173;DHT22;18679;45.190;5.722;2023-05-07T20:11:06;20.70;53.80